sensor_id;sensor_type;location;lat;lon;timestamp;pressure;altitude;pressure_sealevel;temperature;humidity
61345;BME280;47216;42.656;23.232;2022-11-20T00:00:37;93161.91;;;17.81;57.42
61345;BME280;47216;42.656;23.232;2022-11-20T00:03:03;93114.72;;;17.80;57.99
61345;BME280;47216;42.656;23.232;2022-11-20T00:05:33;93140.13;;;17.76;57.50
61345;BME280;47216;42.656;23.232;2022-11-20T00:08:00;93146.97;;;17.77;57.86
61345;BME280;47216;42.656;23.232;2022-11-20T00:10:26;93127.09;;;17.71;57.61
61345;BME280;47216;42.656;23.232;2022-11-20T00:12:53;93107.56;;;17.72;57.75
61345;BME280;47216;42.656;23.232;2022-11-20T00:15:20;93129.75;;;17.79;57.50
61345;BME280;47216;42.656;23.232;2022-11-20T00:17:47;93099.22;;;17.87;57.70
61345;BME280;47216;42.656;23.232;2022-11-20T00:20:14;93122.78;;;17.75;57.39
61345;BME280;47216;42.656;23.232;2022-11-20T00:22:42;93101.69;;;17.75;57.17
61345;BME280;47216;42.656;23.232;2022-11-20T00:25:09;93100.44;;;17.81;57.06
61345;BME280;47216;42.656;23.232;2022-11-20T00:27:37;93116.28;;;17.81;57.10
61345;BME280;47216;42.656;23.232;2022-11-20T00:30:05;93113.00;;;17.75;56.96
61345;BME280;47216;42.656;23.232;2022-11-20T00:32:31;93115.81;;;17.88;57.55
61345;BME280;47216;42.656;23.232;2022-11-20T00:34:58;93133.03;;;17.85;57.15
61345;BME280;47216;42.656;23.232;2022-11-20T00:37:26;93106.31;;;17.78;57.15
61345;BME280;47216;42.656;23.232;2022-11-20T00:39:54;93115.34;;;17.77;57.75
61345;BME280;47216;42.656;23.232;2022-11-20T00:42:21;93123.06;;;17.73;57.90
61345;BME280;47216;42.656;23.232;2022-11-20T00:44:47;93139.19;;;17.72;57.41
61345;BME280;47216;42.656;23.232;2022-11-20T00:47:14;93154.00;;;17.81;58.02
61345;BME280;47216;42.656;23.232;2022-11-20T00:49:41;93162.94;;;17.72;58.11
61345;BME280;47216;42.656;23.232;2022-11-20T00:52:08;93121.69;;;17.76;57.76
61345;BME280;47216;42.656;23.232;2022-11-20T00:54:35;93135.50;;;17.73;58.08
61345;BME280;47216;42.656;23.232;2022-11-20T00:57:03;93145.88;;;17.69;58.12
61345;BME280;47216;42.656;23.232;2022-11-20T00:59:30;93147.25;;;17.67;58.52
61345;BME280;47216;42.656;23.232;2022-11-20T01:01:59;93152.84;;;17.74;58.34
61345;BME280;47216;42.656;23.232;2022-11-20T01:04:26;93141.38;;;17.70;58.37
61345;BME280;47216;42.656;23.232;2022-11-20T01:06:53;93134.38;;;17.65;58.72
61345;BME280;47216;42.656;23.232;2022-11-20T01:09:20;93138.28;;;17.68;58.45
61345;BME280;47216;42.656;23.232;2022-11-20T01:11:47;93115.78;;;17.70;58.32
61345;BME280;47216;42.656;23.232;2022-11-20T01:14:17;93104.13;;;17.62;58.82
61345;BME280;47216;42.656;23.232;2022-11-20T01:16:47;93118.41;;;17.61;58.69
61345;BME280;47216;42.656;23.232;2022-11-20T01:19:16;93112.34;;;17.52;58.48
61345;BME280;47216;42.656;23.232;2022-11-20T01:21:44;93111.25;;;17.53;58.39
61345;BME280;47216;42.656;23.232;2022-11-20T01:24:13;93108.16;;;17.51;58.80
61345;BME280;47216;42.656;23.232;2022-11-20T01:26:41;93112.84;;;17.54;58.60
61345;BME280;47216;42.656;23.232;2022-11-20T01:29:13;93083.03;;;17.62;58.25
61345;BME280;47216;42.656;23.232;2022-11-20T01:31:41;93117.78;;;17.64;57.04
61345;BME280;47216;42.656;23.232;2022-11-20T01:34:11;93065.53;;;17.75;57.10
61345;BME280;47216;42.656;23.232;2022-11-20T01:36:38;93096.41;;;17.66;57.38
61345;BME280;47216;42.656;23.232;2022-11-20T01:39:09;93108.19;;;17.69;57.53
61345;BME280;47216;42.656;23.232;2022-11-20T01:41:36;93080.28;;;17.68;57.39
61345;BME280;47216;42.656;23.232;2022-11-20T01:44:22;93077.16;;;17.66;57.36
61345;BME280;47216;42.656;23.232;2022-11-20T01:46:55;93064.91;;;17.61;57.61
61345;BME280;47216;42.656;23.232;2022-11-20T01:49:25;93079.16;;;17.60;57.52
61345;BME280;47216;42.656;23.232;2022-11-20T01:51:56;93076.22;;;17.61;57.50
61345;BME280;47216;42.656;23.232;2022-11-20T01:54:28;93083.34;;;17.70;57.33
61345;BME280;47216;42.656;23.232;2022-11-20T01:56:59;93090.19;;;17.71;57.73
61345;BME280;47216;42.656;23.232;2022-11-20T01:59:27;93096.41;;;17.75;56.80
61345;BME280;47216;42.656;23.232;2022-11-20T02:01:57;93093.78;;;17.75;56.88
61345;BME280;47216;42.656;23.232;2022-11-20T02:04:24;93109.59;;;17.66;57.33
61345;BME280;47216;42.656;23.232;2022-11-20T02:06:57;93120.75;;;17.54;57.62
61345;BME280;47216;42.656;23.232;2022-11-20T02:09:25;93117.31;;;17.62;57.60
61345;BME280;47216;42.656;23.232;2022-11-20T02:11:52;93120.41;;;17.47;57.92
61345;BME280;47216;42.656;23.232;2022-11-20T02:14:20;93113.91;;;17.53;57.82
61345;BME280;47216;42.656;23.232;2022-11-20T02:16:48;93108.50;;;17.58;57.27
61345;BME280;47216;42.656;23.232;2022-11-20T02:19:23;93105.38;;;17.56;57.68
61345;BME280;47216;42.656;23.232;2022-11-20T02:21:59;93115.44;;;17.46;57.53
61345;BME280;47216;42.656;23.232;2022-11-20T02:24:28;93104.44;;;17.52;57.87
61345;BME280;47216;42.656;23.232;2022-11-20T02:26:59;93114.22;;;17.52;57.44
61345;BME280;47216;42.656;23.232;2022-11-20T02:29:38;93112.66;;;17.51;57.79
61345;BME280;47216;42.656;23.232;2022-11-20T02:32:05;93115.31;;;17.59;57.58
61345;BME280;47216;42.656;23.232;2022-11-20T02:34:32;93120.53;;;17.42;58.22
61345;BME280;47216;42.656;23.232;2022-11-20T02:36:59;93121.16;;;17.39;57.91
61345;BME280;47216;42.656;23.232;2022-11-20T02:39:28;93131.88;;;17.42;58.25
61345;BME280;47216;42.656;23.232;2022-11-20T02:41:55;93116.53;;;17.36;58.87
61345;BME280;47216;42.656;23.232;2022-11-20T02:44:22;93141.19;;;17.40;58.65
61345;BME280;47216;42.656;23.232;2022-11-20T02:46:49;93138.69;;;17.43;58.71
61345;BME280;47216;42.656;23.232;2022-11-20T02:49:16;93148.91;;;17.36;59.30
61345;BME280;47216;42.656;23.232;2022-11-20T02:51:43;93169.53;;;17.34;59.70
61345;BME280;47216;42.656;23.232;2022-11-20T02:54:09;93153.84;;;17.29;60.00
61345;BME280;47216;42.656;23.232;2022-11-20T02:56:39;93155.09;;;17.32;59.84
61345;BME280;47216;42.656;23.232;2022-11-20T02:59:05;93150.88;;;17.13;60.10
61345;BME280;47216;42.656;23.232;2022-11-20T03:01:32;93173.19;;;17.16;60.47
61345;BME280;47216;42.656;23.232;2022-11-20T03:03:59;93162.94;;;17.14;60.66
61345;BME280;47216;42.656;23.232;2022-11-20T03:06:26;93149.75;;;17.14;60.68
61345;BME280;47216;42.656;23.232;2022-11-20T03:08:53;93161.41;;;17.13;60.80
61345;BME280;47216;42.656;23.232;2022-11-20T03:11:19;93156.47;;;17.20;60.34
61345;BME280;47216;42.656;23.232;2022-11-20T03:13:48;93168.22;;;17.14;60.68
61345;BME280;47216;42.656;23.232;2022-11-20T03:16:16;93155.78;;;17.06;61.16
61345;BME280;47216;42.656;23.232;2022-11-20T03:18:44;93175.31;;;17.05;61.07
61345;BME280;47216;42.656;23.232;2022-11-20T03:21:12;93164.91;;;17.00;61.54
61345;BME280;47216;42.656;23.232;2022-11-20T03:23:39;93167.09;;;17.07;61.23
61345;BME280;47216;42.656;23.232;2022-11-20T03:26:08;93148.81;;;17.01;60.72
61345;BME280;47216;42.656;23.232;2022-11-20T03:28:35;93175.31;;;17.05;60.55
61345;BME280;47216;42.656;23.232;2022-11-20T03:31:07;93162.59;;;17.07;60.96
61345;BME280;47216;42.656;23.232;2022-11-20T03:33:34;93150.88;;;17.13;60.49
61345;BME280;47216;42.656;23.232;2022-11-20T03:36:02;93148.03;;;17.01;60.91
61345;BME280;47216;42.656;23.232;2022-11-20T03:38:29;93151.16;;;17.03;60.93
61345;BME280;47216;42.656;23.232;2022-11-20T03:41:00;93157.78;;;17.00;60.99
61345;BME280;47216;42.656;23.232;2022-11-20T03:43:28;93154.50;;;16.95;61.08
61345;BME280;47216;42.656;23.232;2022-11-20T03:45:55;93148.16;;;16.96;60.70
61345;BME280;47216;42.656;23.232;2022-11-20T03:48:24;93164.72;;;16.88;61.31
61345;BME280;47216;42.656;23.232;2022-11-20T03:50:51;93169.84;;;16.93;60.63
61345;BME280;47216;42.656;23.232;2022-11-20T03:53:18;93172.94;;;16.95;60.87
61345;BME280;47216;42.656;23.232;2022-11-20T03:55:45;93177.31;;;16.99;60.86
61345;BME280;47216;42.656;23.232;2022-11-20T03:58:12;93201.91;;;16.95;61.11
61345;BME280;47216;42.656;23.232;2022-11-20T04:00:38;93183.34;;;17.00;60.94
61345;BME280;47216;42.656;23.232;2022-11-20T04:03:05;93166.59;;;16.96;61.21
61345;BME280;47216;42.656;23.232;2022-11-20T04:05:34;93180.66;;;16.83;61.70
61345;BME280;47216;42.656;23.232;2022-11-20T04:08:01;93161.78;;;16.89;61.17
61345;BME280;47216;42.656;23.232;2022-11-20T04:10:28;93183.28;;;16.83;61.45
61345;BME280;47216;42.656;23.232;2022-11-20T04:12:55;93167.97;;;16.93;60.77
61345;BME280;47216;42.656;23.232;2022-11-20T04:15:21;93178.94;;;16.87;60.76
61345;BME280;47216;42.656;23.232;2022-11-20T04:17:48;93160.72;;;16.99;60.62
61345;BME280;47216;42.656;23.232;2022-11-20T04:20:15;93154.50;;;16.95;60.26
61345;BME280;47216;42.656;23.232;2022-11-20T04:22:43;93169.34;;;16.91;60.33
61345;BME280;47216;42.656;23.232;2022-11-20T04:25:10;93173.56;;;16.92;60.44
61345;BME280;47216;42.656;23.232;2022-11-20T04:27:37;93162.13;;;16.96;60.26
61345;BME280;47216;42.656;23.232;2022-11-20T04:30:04;93197.84;;;16.89;60.75
61345;BME280;47216;42.656;23.232;2022-11-20T04:32:31;93186.13;;;16.95;60.30
61345;BME280;47216;42.656;23.232;2022-11-20T04:34:58;93185.84;;;17.05;60.31
61345;BME280;47216;42.656;23.232;2022-11-20T04:37:25;93178.41;;;17.07;60.25
61345;BME280;47216;42.656;23.232;2022-11-20T04:39:53;93170.31;;;16.95;60.36
61345;BME280;47216;42.656;23.232;2022-11-20T04:42:20;93186.84;;;16.87;60.93
61345;BME280;47216;42.656;23.232;2022-11-20T04:44:56;93180.50;;;16.88;60.87
61345;BME280;47216;42.656;23.232;2022-11-20T04:47:23;93178.50;;;16.85;61.44
61345;BME280;47216;42.656;23.232;2022-11-20T04:49:50;93181.53;;;16.78;61.46
61345;BME280;47216;42.656;23.232;2022-11-20T04:52:17;93175.28;;;16.74;61.77
61345;BME280;47216;42.656;23.232;2022-11-20T04:54:44;93154.78;;;16.85;61.76
61345;BME280;47216;42.656;23.232;2022-11-20T04:57:13;93167.88;;;16.76;61.76
61345;BME280;47216;42.656;23.232;2022-11-20T04:59:39;93165.72;;;16.78;61.68
61345;BME280;47216;42.656;23.232;2022-11-20T05:02:06;93150.69;;;16.78;61.73
61345;BME280;47216;42.656;23.232;2022-11-20T05:04:33;93150.34;;;16.71;61.92
61345;BME280;47216;42.656;23.232;2022-11-20T05:07:00;93136.53;;;16.66;62.54
61345;BME280;47216;42.656;23.232;2022-11-20T05:09:27;93143.09;;;16.77;62.31
61345;BME280;47216;42.656;23.232;2022-11-20T05:11:53;93147.88;;;16.75;62.41
61345;BME280;47216;42.656;23.232;2022-11-20T05:14:21;93148.00;;;16.70;62.51
61345;BME280;47216;42.656;23.232;2022-11-20T05:16:48;93119.66;;;16.67;62.77
61345;BME280;47216;42.656;23.232;2022-11-20T05:19:15;93142.13;;;16.64;62.99
61345;BME280;47216;42.656;23.232;2022-11-20T05:21:42;93140.81;;;16.53;63.58
61345;BME280;47216;42.656;23.232;2022-11-20T05:24:09;93125.19;;;16.56;63.57
61345;BME280;47216;42.656;23.232;2022-11-20T05:26:36;93128.59;;;16.57;63.05
61345;BME280;47216;42.656;23.232;2022-11-20T05:29:03;93112.47;;;16.50;63.30
61345;BME280;47216;42.656;23.232;2022-11-20T05:31:31;93123.34;;;16.57;63.33
61345;BME280;47216;42.656;23.232;2022-11-20T05:33:58;93124.34;;;16.47;63.38
61345;BME280;47216;42.656;23.232;2022-11-20T05:36:25;93130.56;;;16.51;62.86
61345;BME280;47216;42.656;23.232;2022-11-20T05:38:51;93137.91;;;16.63;62.56
61345;BME280;47216;42.656;23.232;2022-11-20T05:41:19;93145.47;;;16.56;62.81
61345;BME280;47216;42.656;23.232;2022-11-20T05:43:47;93133.06;;;16.56;62.80
61345;BME280;47216;42.656;23.232;2022-11-20T05:46:16;93121.72;;;16.47;62.83
61345;BME280;47216;42.656;23.232;2022-11-20T05:48:45;93138.66;;;16.55;62.48
61345;BME280;47216;42.656;23.232;2022-11-20T05:51:14;93134.47;;;16.54;62.49
61345;BME280;47216;42.656;23.232;2022-11-20T05:53:42;93111.44;;;16.59;62.20
61345;BME280;47216;42.656;23.232;2022-11-20T05:56:11;93147.31;;;16.55;62.69
61345;BME280;47216;42.656;23.232;2022-11-20T05:58:38;93144.22;;;16.53;62.81
61345;BME280;47216;42.656;23.232;2022-11-20T06:01:06;93159.84;;;16.50;62.83
61345;BME280;47216;42.656;23.232;2022-11-20T06:03:34;93167.19;;;16.62;63.05
61345;BME280;47216;42.656;23.232;2022-11-20T06:06:03;93148.09;;;16.56;63.31
61345;BME280;47216;42.656;23.232;2022-11-20T06:08:30;93154.31;;;16.60;62.52
61345;BME280;47216;42.656;23.232;2022-11-20T06:10:58;93169.03;;;16.61;63.45
61345;BME280;47216;42.656;23.232;2022-11-20T06:13:25;93177.53;;;16.58;63.18
61345;BME280;47216;42.656;23.232;2022-11-20T06:15:52;93188.41;;;16.65;62.38
61345;BME280;47216;42.656;23.232;2022-11-20T06:18:19;93187.03;;;16.68;62.33
61345;BME280;47216;42.656;23.232;2022-11-20T06:20:46;93185.34;;;16.72;61.90
61345;BME280;47216;42.656;23.232;2022-11-20T06:23:15;93179.78;;;16.73;62.54
61345;BME280;47216;42.656;23.232;2022-11-20T06:25:42;93181.72;;;16.82;62.35
61345;BME280;47216;42.656;23.232;2022-11-20T06:28:09;93193.31;;;16.80;62.43
61345;BME280;47216;42.656;23.232;2022-11-20T06:30:36;93173.84;;;16.90;61.98
61345;BME280;47216;42.656;23.232;2022-11-20T06:33:03;93186.25;;;16.90;62.09
61345;BME280;47216;42.656;23.232;2022-11-20T06:35:30;93193.41;;;16.98;62.35
61345;BME280;47216;42.656;23.232;2022-11-20T06:37:57;93174.97;;;16.98;61.32
61345;BME280;47216;42.656;23.232;2022-11-20T06:40:25;93197.94;;;17.06;61.14
61345;BME280;47216;42.656;23.232;2022-11-20T06:42:53;93193.97;;;17.17;60.66
61345;BME280;47216;42.656;23.232;2022-11-20T06:45:20;93201.22;;;17.12;59.91
61345;BME280;47216;42.656;23.232;2022-11-20T06:47:47;93202.81;;;17.21;60.00
61345;BME280;47216;42.656;23.232;2022-11-20T06:50:14;93202.69;;;17.27;59.44
61345;BME280;47216;42.656;23.232;2022-11-20T06:52:41;93194.31;;;17.25;60.04
61345;BME280;47216;42.656;23.232;2022-11-20T06:55:08;93184.19;;;17.18;60.91
61345;BME280;47216;42.656;23.232;2022-11-20T06:57:36;93230.66;;;17.14;61.81
61345;BME280;47216;42.656;23.232;2022-11-20T07:00:03;93219.78;;;17.07;61.96
61345;BME280;47216;42.656;23.232;2022-11-20T07:02:30;93230.38;;;17.15;61.81
61345;BME280;47216;42.656;23.232;2022-11-20T07:04:57;93231.03;;;16.90;62.79
61345;BME280;47216;42.656;23.232;2022-11-20T07:07:24;93232.56;;;16.91;63.32
61345;BME280;47216;42.656;23.232;2022-11-20T07:09:51;93258.75;;;16.87;63.59
61345;BME280;47216;42.656;23.232;2022-11-20T07:12:17;93228.56;;;16.71;64.02
61345;BME280;47216;42.656;23.232;2022-11-20T07:14:46;93243.56;;;16.70;63.87
61345;BME280;47216;42.656;23.232;2022-11-20T07:17:12;93228.63;;;16.57;64.83
61345;BME280;47216;42.656;23.232;2022-11-20T07:19:39;93238.34;;;16.56;64.70
61345;BME280;47216;42.656;23.232;2022-11-20T07:22:08;93252.78;;;16.36;65.38
61345;BME280;47216;42.656;23.232;2022-11-20T07:24:35;93222.63;;;16.43;65.55
61345;BME280;47216;42.656;23.232;2022-11-20T07:27:02;93225.66;;;16.13;66.69
61345;BME280;47216;42.656;23.232;2022-11-20T07:29:29;93231.91;;;16.17;66.79
61345;BME280;47216;42.656;23.232;2022-11-20T07:31:57;93216.47;;;16.25;66.42
61345;BME280;47216;42.656;23.232;2022-11-20T07:34:24;93222.75;;;16.37;65.58
61345;BME280;47216;42.656;23.232;2022-11-20T07:36:51;93215.09;;;16.27;65.83
61345;BME280;47216;42.656;23.232;2022-11-20T07:39:18;93199.66;;;16.34;65.42
61345;BME280;47216;42.656;23.232;2022-11-20T07:41:45;93201.69;;;16.37;64.76
61345;BME280;47216;42.656;23.232;2022-11-20T07:44:11;93185.31;;;16.41;64.56
61345;BME280;47216;42.656;23.232;2022-11-20T07:46:38;93178.38;;;16.45;64.43
61345;BME280;47216;42.656;23.232;2022-11-20T07:49:06;93188.66;;;16.55;62.72
61345;BME280;47216;42.656;23.232;2022-11-20T07:51:33;93188.28;;;16.70;62.22
61345;BME280;47216;42.656;23.232;2022-11-20T07:54:00;93194.44;;;16.66;62.71
61345;BME280;47216;42.656;23.232;2022-11-20T07:56:27;93208.09;;;16.68;62.87
61345;BME280;47216;42.656;23.232;2022-11-20T07:58:54;93217.91;;;16.76;63.17
61345;BME280;47216;42.656;23.232;2022-11-20T08:01:20;93225.03;;;16.75;62.42
61345;BME280;47216;42.656;23.232;2022-11-20T08:03:47;93214.69;;;16.79;63.02
61345;BME280;47216;42.656;23.232;2022-11-20T08:06:15;93213.31;;;16.82;63.05
61345;BME280;47216;42.656;23.232;2022-11-20T08:08:43;93233.63;;;16.67;63.08
61345;BME280;47216;42.656;23.232;2022-11-20T08:11:10;93199.91;;;16.69;63.90
61345;BME280;47216;42.656;23.232;2022-11-20T08:13:54;93216.09;;;16.63;64.40
61345;BME280;47216;42.656;23.232;2022-11-20T08:16:39;93216.53;;;16.56;65.42
61345;BME280;47216;42.656;23.232;2022-11-20T08:19:06;93202.00;;;16.36;67.38
61345;BME280;47216;42.656;23.232;2022-11-20T08:21:35;93228.84;;;16.47;66.91
61345;BME280;47216;42.656;23.232;2022-11-20T08:24:02;93238.25;;;16.39;67.39
61345;BME280;47216;42.656;23.232;2022-11-20T08:26:29;93260.56;;;16.42;67.94
61345;BME280;47216;42.656;23.232;2022-11-20T08:28:56;93257.91;;;16.42;67.06
61345;BME280;47216;42.656;23.232;2022-11-20T08:31:24;93261.72;;;16.35;67.74
61345;BME280;47216;42.656;23.232;2022-11-20T08:33:52;93264.84;;;16.37;67.81
61345;BME280;47216;42.656;23.232;2022-11-20T08:36:19;93254.41;;;16.46;67.06
61345;BME280;47216;42.656;23.232;2022-11-20T08:38:48;93272.75;;;16.37;68.08
61345;BME280;47216;42.656;23.232;2022-11-20T08:41:15;93289.34;;;16.24;69.23
61345;BME280;47216;42.656;23.232;2022-11-20T08:43:54;93303.00;;;15.99;71.64
61345;BME280;47216;42.656;23.232;2022-11-20T08:46:21;93292.03;;;15.83;73.27
61345;BME280;47216;42.656;23.232;2022-11-20T08:48:48;93323.00;;;15.72;74.15
61345;BME280;47216;42.656;23.232;2022-11-20T08:51:15;93305.16;;;15.55;75.04
61345;BME280;47216;42.656;23.232;2022-11-20T08:53:42;93303.41;;;15.50;75.53
61345;BME280;47216;42.656;23.232;2022-11-20T08:56:11;93298.72;;;15.47;76.21
61345;BME280;47216;42.656;23.232;2022-11-20T08:58:38;93296.19;;;15.42;76.40
61345;BME280;47216;42.656;23.232;2022-11-20T09:01:04;93309.38;;;15.09;77.23
61345;BME280;47216;42.656;23.232;2022-11-20T09:03:31;93302.19;;;15.29;77.23
61345;BME280;47216;42.656;23.232;2022-11-20T09:05:58;93305.88;;;15.14;77.68
61345;BME280;47216;42.656;23.232;2022-11-20T09:08:26;93315.75;;;15.03;79.80
61345;BME280;47216;42.656;23.232;2022-11-20T09:10:53;93305.06;;;15.00;79.31
61345;BME280;47216;42.656;23.232;2022-11-20T09:13:22;93307.72;;;14.81;79.81
61345;BME280;47216;42.656;23.232;2022-11-20T09:15:53;93323.75;;;14.79;79.66
61345;BME280;47216;42.656;23.232;2022-11-20T09:18:20;93318.88;;;14.73;79.71
61345;BME280;47216;42.656;23.232;2022-11-20T09:20:47;93316.25;;;14.73;79.18
61345;BME280;47216;42.656;23.232;2022-11-20T09:23:14;93308.25;;;14.64;80.00
61345;BME280;47216;42.656;23.232;2022-11-20T09:25:41;93313.72;;;14.67;79.05
61345;BME280;47216;42.656;23.232;2022-11-20T09:28:08;93314.06;;;14.61;79.63
61345;BME280;47216;42.656;23.232;2022-11-20T09:30:36;93317.97;;;14.63;79.37
61345;BME280;47216;42.656;23.232;2022-11-20T09:33:04;93296.66;;;14.46;80.36
61345;BME280;47216;42.656;23.232;2022-11-20T09:35:31;93287.50;;;14.43;81.04
61345;BME280;47216;42.656;23.232;2022-11-20T09:37:58;93272.44;;;14.54;80.91
61345;BME280;47216;42.656;23.232;2022-11-20T09:40:26;93256.81;;;14.44;81.30
61345;BME280;47216;42.656;23.232;2022-11-20T09:42:57;93260.16;;;14.49;81.74
61345;BME280;47216;42.656;23.232;2022-11-20T09:48:45;93258.91;;;14.28;81.73
61345;BME280;47216;42.656;23.232;2022-11-20T09:51:23;93243.41;;;14.45;81.30
61345;BME280;47216;42.656;23.232;2022-11-20T09:54:03;93235.13;;;14.57;82.22
61345;BME280;47216;42.656;23.232;2022-11-20T09:56:34;93245.47;;;14.67;79.98
61345;BME280;47216;42.656;23.232;2022-11-20T09:59:05;93230.19;;;14.69;81.47
61345;BME280;47216;42.656;23.232;2022-11-20T10:01:35;93238.56;;;14.71;80.20
61345;BME280;47216;42.656;23.232;2022-11-20T10:04:09;93219.47;;;14.85;80.12
61345;BME280;47216;42.656;23.232;2022-11-20T10:06:41;93221.63;;;14.97;78.46
61345;BME280;47216;42.656;23.232;2022-11-20T10:09:18;93225.00;;;14.97;80.52
61345;BME280;47216;42.656;23.232;2022-11-20T10:11:53;93227.63;;;14.97;80.36
61345;BME280;47216;42.656;23.232;2022-11-20T10:14:30;93219.22;;;15.14;77.53
61345;BME280;47216;42.656;23.232;2022-11-20T10:17:05;93213.00;;;15.24;77.90
61345;BME280;47216;42.656;23.232;2022-11-20T10:19:51;93221.75;;;15.33;78.44
61345;BME280;47216;42.656;23.232;2022-11-20T10:22:31;93233.13;;;15.42;76.83
61345;BME280;47216;42.656;23.232;2022-11-20T10:25:05;93238.78;;;15.36;77.51
61345;BME280;47216;42.656;23.232;2022-11-20T10:28:07;93234.09;;;15.46;76.63
61345;BME280;47216;42.656;23.232;2022-11-20T10:30:39;93243.25;;;15.35;78.20
61345;BME280;47216;42.656;23.232;2022-11-20T10:33:13;93247.91;;;15.24;78.84
61345;BME280;47216;42.656;23.232;2022-11-20T10:35:45;93249.84;;;15.19;79.27
61345;BME280;47216;42.656;23.232;2022-11-20T10:38:19;93250.63;;;15.05;80.62
61345;BME280;47216;42.656;23.232;2022-11-20T10:40:49;93249.63;;;15.01;80.88
61345;BME280;47216;42.656;23.232;2022-11-20T10:43:19;93251.66;;;14.90;81.38
61345;BME280;47216;42.656;23.232;2022-11-20T10:45:52;93258.38;;;14.97;81.68
61345;BME280;47216;42.656;23.232;2022-11-20T10:48:21;93262.44;;;14.89;81.83
61345;BME280;47216;42.656;23.232;2022-11-20T10:51:10;93274.72;;;14.61;83.48
61345;BME280;47216;42.656;23.232;2022-11-20T10:53:55;93275.41;;;14.66;83.68
61345;BME280;47216;42.656;23.232;2022-11-20T10:56:30;93275.13;;;14.49;83.18
61345;BME280;47216;42.656;23.232;2022-11-20T11:01:49;93380.84;;;14.25;80.97
61345;BME280;47216;42.656;23.232;2022-11-20T11:04:28;93350.94;;;13.83;79.19
61345;BME280;47216;42.656;23.232;2022-11-20T11:07:06;93341.34;;;13.20;77.75
61345;BME280;47216;42.656;23.232;2022-11-20T11:09:38;93299.75;;;13.14;78.04
61345;BME280;47216;42.656;23.232;2022-11-20T11:12:07;93300.38;;;13.35;79.18
61345;BME280;47216;42.656;23.232;2022-11-20T11:14:45;93296.72;;;13.36;81.15
61345;BME280;47216;42.656;23.232;2022-11-20T11:17:27;93300.63;;;13.38;80.78
61345;BME280;47216;42.656;23.232;2022-11-20T11:20:01;93287.88;;;13.27;79.22
61345;BME280;47216;42.656;23.232;2022-11-20T11:22:32;93307.88;;;13.12;79.71
61345;BME280;47216;42.656;23.232;2022-11-20T11:24:59;93281.91;;;13.21;81.43
61345;BME280;47216;42.656;23.232;2022-11-20T11:27:26;93281.84;;;13.26;78.69
61345;BME280;47216;42.656;23.232;2022-11-20T11:30:11;93281.25;;;13.05;80.35
61345;BME280;47216;42.656;23.232;2022-11-20T11:32:39;93278.31;;;13.12;78.67
61345;BME280;47216;42.656;23.232;2022-11-20T11:35:17;93271.91;;;13.28;78.42
61345;BME280;47216;42.656;23.232;2022-11-20T11:37:46;93266.63;;;13.33;74.11
61345;BME280;47216;42.656;23.232;2022-11-20T11:40:15;93277.88;;;13.34;75.07
61345;BME280;47216;42.656;23.232;2022-11-20T11:42:43;93296.31;;;13.48;73.51
61345;BME280;47216;42.656;23.232;2022-11-20T11:45:14;93255.91;;;13.54;74.75
61345;BME280;47216;42.656;23.232;2022-11-20T11:47:45;93256.41;;;13.56;74.38
61345;BME280;47216;42.656;23.232;2022-11-20T11:50:19;93266.84;;;13.61;75.55
61345;BME280;47216;42.656;23.232;2022-11-20T11:52:54;93271.63;;;13.54;73.52
61345;BME280;47216;42.656;23.232;2022-11-20T11:55:29;93272.63;;;13.58;72.31
61345;BME280;47216;42.656;23.232;2022-11-20T11:58:06;93284.69;;;13.59;74.23
61345;BME280;47216;42.656;23.232;2022-11-20T12:00:36;93276.41;;;13.47;77.58
61345;BME280;47216;42.656;23.232;2022-11-20T12:03:10;93278.53;;;13.44;73.89
61345;BME280;47216;42.656;23.232;2022-11-20T12:05:42;93273.63;;;13.62;72.25
61345;BME280;47216;42.656;23.232;2022-11-20T12:08:15;93259.34;;;13.73;72.78
61345;BME280;47216;42.656;23.232;2022-11-20T12:10:47;93248.94;;;13.68;74.23
61345;BME280;47216;42.656;23.232;2022-11-20T12:13:22;93245.31;;;13.64;75.19
61345;BME280;47216;42.656;23.232;2022-11-20T12:15:53;93251.28;;;13.70;74.72
61345;BME280;47216;42.656;23.232;2022-11-20T12:18:21;93243.03;;;13.57;75.40
61345;BME280;47216;42.656;23.232;2022-11-20T12:20:57;93241.69;;;13.60;73.61
61345;BME280;47216;42.656;23.232;2022-11-20T12:23:34;93232.84;;;13.56;71.63
61345;BME280;47216;42.656;23.232;2022-11-20T12:26:10;93266.22;;;13.69;73.84
61345;BME280;47216;42.656;23.232;2022-11-20T12:28:50;93249.69;;;13.50;77.08
61345;BME280;47216;42.656;23.232;2022-11-20T12:31:34;93242.03;;;13.53;73.00
61345;BME280;47216;42.656;23.232;2022-11-20T12:34:35;93222.00;;;13.62;70.75
61345;BME280;47216;42.656;23.232;2022-11-20T12:37:12;93210.56;;;13.77;71.83
61345;BME280;47216;42.656;23.232;2022-11-20T12:39:42;93204.84;;;13.75;72.27
61345;BME280;47216;42.656;23.232;2022-11-20T12:42:27;93192.59;;;13.71;74.86
61345;BME280;47216;42.656;23.232;2022-11-20T12:51:21;93163.69;;;13.57;72.01
61345;BME280;47216;42.656;23.232;2022-11-20T12:54:02;93164.03;;;13.69;70.13
61345;BME280;47216;42.656;23.232;2022-11-20T12:56:42;93146.03;;;13.81;70.86
61345;BME280;47216;42.656;23.232;2022-11-20T12:59:26;93152.16;;;13.96;72.02
61345;BME280;47216;42.656;23.232;2022-11-20T13:02:05;93176.19;;;13.98;74.09
61345;BME280;47216;42.656;23.232;2022-11-20T13:05:00;93147.63;;;14.15;74.40
61345;BME280;47216;42.656;23.232;2022-11-20T13:07:30;93145.91;;;14.24;74.88
61345;BME280;47216;42.656;23.232;2022-11-20T13:09:59;93141.34;;;14.30;74.13
61345;BME280;47216;42.656;23.232;2022-11-20T13:12:33;93163.47;;;14.43;73.66
61345;BME280;47216;42.656;23.232;2022-11-20T13:15:08;93196.41;;;14.49;74.41